KVLD Airport Information

Runway Information
Runway 04 Length 5598 ft width 100 ft
Elevation 199 ft Threshold 0 ft Heading 36
Runway 22 Length 5598 ft Width 100 ft
Elevation 196 ft Threshold 0 ft Heading 216
Runway 13 Length 3636 ft width 75 ft
Elevation 201 ft Threshold 0 ft Heading 126
Runway 31 Length 3636 ft Width 75 ft
Elevation 196 ft Threshold 0 ft Heading 306
Runway 17 Length 6302 ft width 150 ft
Elevation 196 ft Threshold 0 ft Heading 171
Runway 35 Length 6302 ft Width 150 ft
Elevation 198 ft Threshold 0 ft Heading 351
Airport Frequencies
Type A/D Name APP/DEP Frequency 119.525 MHZ
Type ASOS Name ASOS Frequency 126.225 MHZ
Type CTAF Name CTAF Frequency 120.9 MHZ
Type GND Name GND Frequency 121.7 MHZ
Type RDO Name MACON RDO Frequency 122.2 MHZ
Type TWR Name TWR Frequency 120.9 MHZ
Type UNIC Name UNICOM Frequency 122.95 MHZ
Airport Navaids
Type VOR-DME Name Valdosta Frequency 114800 KHZ
Airport Weather Information & NOTAM
ADDS - METARS form results

(2348 UTC 22 September 2021)
Data provider http://aviationweather.gov/metar/data/
 
METAR text: KVLD 222328Z 20003KT 10SM SCT085 SCT110 24/23 A2986 RMK AO2 RAE12 TSE04 P0005 T02390233
Conditions at: KVLD (VALDOSTA REGIONA, GA, US) observed 2328 UTC 22 September 2021
Temperature: 23.9°C (75°F)
Dewpoint: 23.3°C (74°F) [RH = 96%]
Pressure (altimeter): 29.86 inches Hg (1011.3 mb)
Winds: from the SSW (200 degrees) at 3 MPH (3 knots; 1.5 m/s)
Visibility: 10 or more miles (16+ km)
Ceiling: at least 12,000 feet AGL
Clouds: scattered clouds at 8500 feet AGL
scattered clouds at 11000 feet AGL
Weather: no significant weather observed at this time

METAR text: KVLD 222308Z 21006KT 3SM VCTS -RA BR FEW037 BKN060 OVC110 24/23 A2987 RMK AO2 TSE04 P0005 T02390233
Conditions at: KVLD (VALDOSTA REGIONA, GA, US) observed 2308 UTC 22 September 2021
Temperature: 23.9°C (75°F)
Dewpoint: 23.3°C (74°F) [RH = 96%]
Pressure (altimeter): 29.87 inches Hg (1011.6 mb)
Winds: from the SSW (210 degrees) at 7 MPH (6 knots; 3.1 m/s)
Visibility: 3 miles ( 5 km)
Ceiling: 6000 feet AGL
Clouds: few clouds at 3700 feet AGL
broken clouds at 6000 feet AGL
overcast cloud deck at 11000 feet AGL
Weather: VCTS -RA BR  (thunderstorm in vicinity, light rain, mist)

METAR text: KVLD 222304Z VRB05KT 1 3/4SM VCTS -RA BR SCT037 BKN060 OVC110 24/23 A2987 RMK AO2 TSE04 P0005 T02390233
Conditions at: KVLD (VALDOSTA REGIONA, GA, US) observed 2304 UTC 22 September 2021
Temperature: 23.9°C (75°F)
Dewpoint: 23.3°C (74°F) [RH = 96%]
Pressure (altimeter): 29.87 inches Hg (1011.6 mb)
Winds: variable direction winds at 6 MPH (5 knots; 2.6 m/s)
Visibility: 1.75 miles (2.82 km)
Ceiling: 6000 feet AGL
Clouds: scattered clouds at 3700 feet AGL
broken clouds at 6000 feet AGL
overcast cloud deck at 11000 feet AGL
Weather: VCTS -RA BR  (thunderstorm in vicinity, light rain, mist)

METAR text: KVLD 222253Z 17005KT 2SM +TSRA BR SCT026 BKN037 OVC075 24/23 A2987 RMK AO2 LTG DSNT S RAB40 TSB16E31B49 SLP119 P0018 T02390228
Conditions at: KVLD (VALDOSTA REGIONA, GA, US) observed 2253 UTC 22 September 2021
Temperature: 23.9°C (75°F)
Dewpoint: 22.8°C (73°F) [RH = 94%]
Pressure (altimeter): 29.87 inches Hg (1011.6 mb)
[Sea-level pressure: 1011.9 mb]
Winds: from the S (170 degrees) at 6 MPH (5 knots; 2.6 m/s)
Visibility: 2.00 miles (3.22 km)
Ceiling: 3700 feet AGL
Clouds: scattered clouds at 2600 feet AGL
broken clouds at 3700 feet AGL
overcast cloud deck at 7500 feet AGL
Weather: +TSRA BR  (heavy rain associated with thunderstorm(s), mist)

METAR text: KVLD 222249Z VRB03KT 2SM +TSRA BR FEW023 BKN031 OVC065 24/23 A2987 RMK AO2 LTG DSNT S RAB40 TSB16E31B49 P0017
Conditions at: KVLD (VALDOSTA REGIONA, GA, US) observed 2249 UTC 22 September 2021
Temperature: 24.0°C (75°F)
Dewpoint: 23.0°C (73°F) [RH = 94%]
Pressure (altimeter): 29.87 inches Hg (1011.6 mb)
Winds: variable direction winds at 3 MPH (3 knots; 1.5 m/s)
Visibility: 2.00 miles (3.22 km)
Ceiling: 3100 feet AGL
Clouds: few clouds at 2300 feet AGL
broken clouds at 3100 feet AGL
overcast cloud deck at 6500 feet AGL
Weather: +TSRA BR  (heavy rain associated with thunderstorm(s), mist)

Forecast for: KVLD (VALDOSTA REGIONA, GA, US)
Text: KVLD 222328Z 2300/2324 21006KT 3SM -RA BR VCTS FEW040CB BKN060 OVC100
Forecast period: 0000 to 0100 UTC 23 September 2021
Forecast type: FROM: standard forecast or significant change
Winds: from the SSW (210 degrees) at 7 MPH (6 knots; 3.1 m/s)
Visibility: 3 miles (5 km)
Ceiling: 6000 feet AGL
Clouds: few clouds at 4000 feet AGL
broken clouds at 6000 feet AGL
overcast cloud deck at 10000 feet AGL
Weather: -RA BR VCTS  (light rain, mist, thunderstorm in vicinity)
Text: TEMPO 2300/2301 6SM FEW040CB BKN060 OVC100
Forecast period: 0000 to 0100 UTC 23 September 2021
Forecast type: TEMPORARY: The following changes expected for less than half the time period
Visibility: 6 miles (10 km)
Ceiling: 6000 feet AGL
Clouds: few clouds at 4000 feet AGL
broken clouds at 6000 feet AGL
overcast cloud deck at 10000 feet AGL
Weather: no significant weather forecast for this period
Text: FM230100 33004KT P6SM BKN200
Forecast period: 0100 UTC 23 September 2021 to 0000 UTC 24 September 2021
Forecast type: FROM: standard forecast or significant change
Winds: from the NNW (330 degrees) at 5 MPH (4 knots; 2.1 m/s)
Visibility: 6 or more miles (10+ km)
Ceiling: 20000 feet AGL
Clouds: broken clouds at 20000 feet AGL
Weather: no significant weather forecast for this period